createdAt,value
2018-12-26T00:00:53.112Z,51.80
2018-12-26T00:03:25.064Z,51.90
2018-12-26T00:05:56.968Z,51.90
2018-12-26T00:08:28.978Z,52.00
2018-12-26T00:11:00.835Z,51.90
2018-12-26T00:13:33.624Z,51.90
2018-12-26T00:16:05.463Z,52.00
2018-12-26T00:18:37.316Z,52.00
2018-12-26T00:21:09.161Z,52.10
2018-12-26T00:23:41.055Z,52.60
2018-12-26T00:26:13.277Z,52.50
2018-12-26T00:28:45.136Z,52.10
2018-12-26T00:31:17.035Z,52.10
2018-12-26T00:33:49.046Z,52.10
2018-12-26T00:36:20.944Z,52.20
2018-12-26T00:38:53.034Z,52.10
2018-12-26T00:41:24.984Z,52.00
2018-12-26T00:43:56.924Z,52.10
2018-12-26T00:46:28.766Z,52.30
2018-12-26T00:49:00.627Z,52.20
2018-12-26T00:51:51.488Z,52.20
2018-12-26T00:54:23.437Z,52.10
2018-12-26T00:56:55.249Z,52.20
2018-12-26T00:59:27.263Z,52.30
2018-12-26T01:01:59.093Z,52.30
2018-12-26T01:04:31.132Z,52.50
2018-12-26T01:07:02.948Z,52.30
2018-12-26T01:09:34.911Z,52.30
2018-12-26T01:12:06.980Z,53.00
2018-12-26T01:14:50.157Z,52.50
2018-12-26T01:17:22.055Z,52.20
2018-12-26T01:19:54.205Z,52.40
2018-12-26T01:22:26.174Z,52.60
2018-12-26T01:25:09.766Z,52.40
2018-12-26T01:27:41.568Z,52.90
2018-12-26T01:30:13.550Z,52.50
2018-12-26T01:32:45.672Z,52.60
2018-12-26T01:35:17.573Z,52.50
2018-12-26T01:37:49.588Z,52.60
2018-12-26T01:40:21.594Z,52.60
2018-12-26T01:42:53.347Z,52.50
2018-12-26T01:45:25.202Z,52.60
2018-12-26T01:47:57.008Z,52.60
2018-12-26T01:50:28.806Z,52.70
2018-12-26T01:53:00.624Z,52.80
2018-12-26T01:55:32.862Z,52.80
2018-12-26T01:58:06.976Z,52.90
2018-12-26T02:00:38.931Z,52.80
2018-12-26T02:03:10.815Z,52.70
2018-12-26T02:05:42.653Z,52.90
2018-12-26T02:08:14.538Z,52.90
2018-12-26T02:10:46.323Z,52.80
2018-12-26T02:13:18.197Z,52.90
2018-12-26T02:15:50.027Z,52.90
2018-12-26T02:18:22.024Z,53.00
2018-12-26T02:20:54.927Z,52.90
2018-12-26T02:23:26.766Z,53.00
2018-12-26T02:25:58.602Z,53.00
2018-12-26T02:28:30.504Z,53.10
2018-12-26T02:31:02.430Z,53.10
2018-12-26T02:33:34.306Z,53.00
2018-12-26T02:36:07.428Z,53.40
2018-12-26T02:38:39.290Z,53.20
2018-12-26T02:41:11.213Z,53.10
2018-12-26T02:43:43.034Z,53.10
2018-12-26T02:46:14.839Z,53.20
2018-12-26T02:48:46.890Z,53.20
2018-12-26T02:51:19.093Z,53.40
2018-12-26T02:53:50.940Z,53.40
2018-12-26T02:56:22.803Z,53.40
2018-12-26T02:58:54.599Z,53.50
2018-12-26T03:01:28.706Z,53.50
2018-12-26T03:04:00.653Z,53.50
2018-12-26T03:06:32.539Z,53.70
2018-12-26T03:09:06.312Z,53.70
2018-12-26T03:11:38.145Z,53.50
2018-12-26T03:14:10.314Z,53.60
2018-12-26T03:16:42.319Z,53.50
2018-12-26T03:19:14.135Z,53.50
2018-12-26T03:21:45.933Z,53.70
2018-12-26T03:24:17.975Z,53.70
2018-12-26T03:26:55.966Z,53.70
2018-12-26T03:29:23.502Z,53.70
2018-12-26T03:31:55.325Z,53.70
2018-12-26T03:34:27.344Z,53.70
2018-12-26T03:36:59.257Z,53.80
2018-12-26T03:39:31.133Z,53.70
2018-12-26T03:42:03.053Z,53.90
2018-12-26T03:44:36.139Z,53.80
2018-12-26T03:47:09.432Z,53.90
2018-12-26T03:49:41.262Z,53.90
2018-12-26T03:52:13.071Z,53.80
2018-12-26T03:54:45.358Z,54.00
2018-12-26T03:57:17.175Z,54.10
2018-12-26T03:59:49.392Z,53.90
2018-12-26T04:02:21.290Z,53.90
2018-12-26T04:04:53.354Z,53.90
2018-12-26T04:07:25.197Z,54.00
2018-12-26T04:09:57.099Z,53.80
2018-12-26T04:12:28.911Z,53.90
2018-12-26T04:15:00.966Z,53.90
2018-12-26T04:17:33.982Z,53.90
2018-12-26T04:20:06.462Z,54.10
2018-12-26T04:22:38.411Z,54.10
2018-12-26T04:25:10.266Z,54.10
2018-12-26T04:27:42.031Z,54.10
2018-12-26T04:30:13.856Z,54.30
2018-12-26T04:32:45.752Z,54.30
2018-12-26T04:35:17.580Z,54.20
2018-12-26T04:37:49.411Z,54.10
2018-12-26T04:40:21.210Z,54.10
2018-12-26T04:42:53.059Z,54.10
2018-12-26T04:45:24.861Z,54.10
2018-12-26T04:47:56.772Z,53.90
2018-12-26T04:50:28.612Z,53.90
2018-12-26T04:53:00.403Z,53.90
2018-12-26T04:55:32.410Z,54.00
2018-12-26T04:58:04.411Z,54.00
2018-12-26T05:00:36.212Z,54.10
2018-12-26T05:03:08.397Z,54.10
2018-12-26T05:05:40.200Z,54.20
2018-12-26T05:08:23.360Z,54.20
2018-12-26T05:10:55.147Z,54.30
2018-12-26T05:13:26.918Z,54.30
2018-12-26T05:15:58.757Z,54.30
2018-12-26T05:18:30.699Z,54.20
2018-12-26T05:21:02.651Z,54.20
2018-12-26T05:23:34.554Z,54.20
2018-12-26T05:26:06.370Z,54.20
2018-12-26T05:28:38.146Z,54.10
2018-12-26T05:31:10.116Z,54.10
2018-12-26T05:33:41.911Z,54.20
2018-12-26T05:36:13.689Z,54.20
2018-12-26T05:38:45.535Z,54.20
2018-12-26T05:41:17.284Z,54.20
2018-12-26T05:43:49.111Z,54.20
2018-12-26T05:46:21.101Z,54.20
2018-12-26T05:48:53.378Z,54.20
2018-12-26T05:51:44.292Z,54.10
2018-12-26T05:54:16.152Z,54.10
2018-12-26T05:56:48.117Z,54.00
2018-12-26T05:59:19.977Z,54.00
2018-12-26T06:01:51.818Z,54.00
2018-12-26T06:04:24.950Z,54.10
2018-12-26T06:06:56.875Z,54.20
2018-12-26T06:09:28.678Z,54.10
2018-12-26T06:12:00.801Z,54.10
2018-12-26T06:14:32.573Z,54.10
2018-12-26T06:17:04.533Z,54.10
2018-12-26T06:19:36.441Z,54.00
2018-12-26T06:22:08.260Z,54.00
2018-12-26T06:24:40.104Z,53.90
2018-12-26T06:27:12.133Z,53.90
2018-12-26T06:29:43.954Z,53.80
2018-12-26T06:32:15.760Z,53.30
2018-12-26T06:34:47.567Z,53.80
2018-12-26T06:37:19.677Z,53.80
2018-12-26T06:39:51.501Z,54.40
2018-12-26T06:42:24.522Z,53.80
2018-12-26T06:44:56.419Z,53.90
2018-12-26T06:47:28.338Z,53.90
2018-12-26T06:50:00.258Z,54.10
2018-12-26T06:52:32.045Z,54.00
2018-12-26T06:55:03.859Z,53.90
2018-12-26T06:57:35.937Z,53.80
2018-12-26T07:00:08.021Z,54.40
2018-12-26T07:02:40.153Z,53.70
2018-12-26T07:05:30.999Z,53.60
2018-12-26T07:08:02.952Z,53.60
2018-12-26T07:10:34.800Z,53.60
2018-12-26T07:13:06.693Z,53.60
2018-12-26T07:15:38.505Z,53.50
2018-12-26T07:18:10.364Z,53.50
2018-12-26T07:20:43.444Z,53.40
2018-12-26T07:23:15.202Z,53.40
2018-12-26T07:25:47.054Z,53.50
2018-12-26T07:28:18.874Z,53.60
2018-12-26T07:30:50.720Z,53.60
2018-12-26T07:33:22.525Z,53.80
2018-12-26T07:35:55.938Z,53.90
2018-12-26T07:38:28.115Z,54.00
2018-12-26T07:40:59.927Z,54.10
2018-12-26T07:43:31.745Z,54.20
2018-12-26T07:46:03.656Z,54.20
2018-12-26T07:48:35.518Z,54.20
2018-12-26T07:51:07.556Z,54.10
2018-12-26T07:53:39.692Z,54.00
2018-12-26T07:56:11.519Z,54.00
2018-12-26T07:58:43.726Z,53.90
2018-12-26T08:01:15.527Z,53.90
2018-12-26T08:03:47.531Z,54.00
2018-12-26T08:06:19.476Z,54.10
2018-12-26T08:08:51.281Z,54.10
2018-12-26T08:11:23.164Z,54.10
2018-12-26T08:13:56.163Z,54.20
2018-12-26T08:16:28.073Z,54.20
2018-12-26T08:18:59.984Z,54.20
2018-12-26T08:21:31.829Z,54.20
2018-12-26T08:24:03.619Z,54.20
2018-12-26T08:26:35.666Z,54.10
2018-12-26T08:29:07.646Z,54.10
2018-12-26T08:31:39.529Z,54.10
2018-12-26T08:34:11.373Z,54.00
2018-12-26T08:36:43.215Z,54.00
2018-12-26T08:39:15.020Z,54.10
2018-12-26T08:41:46.822Z,54.10
2018-12-26T08:44:19.973Z,54.00
2018-12-26T08:46:51.871Z,54.00
2018-12-26T08:49:23.913Z,54.10
2018-12-26T08:51:55.929Z,54.10
2018-12-26T08:54:27.810Z,54.10
2018-12-26T08:56:59.636Z,54.00
2018-12-26T08:59:31.626Z,54.00
2018-12-26T09:02:03.518Z,54.00
2018-12-26T09:04:35.348Z,53.90
2018-12-26T09:07:07.278Z,53.90
2018-12-26T09:09:39.210Z,53.80
2018-12-26T09:12:11.007Z,53.70
2018-12-26T09:14:42.850Z,53.70
2018-12-26T09:17:14.812Z,53.20
2018-12-26T09:19:46.905Z,53.70
2018-12-26T09:22:18.852Z,53.70
2018-12-26T09:24:50.700Z,54.30
2018-12-26T09:27:23.757Z,53.60
2018-12-26T09:29:55.731Z,53.60
2018-12-26T09:32:27.596Z,53.50
2018-12-26T09:34:59.443Z,53.50
2018-12-26T09:37:31.380Z,53.50
2018-12-26T09:40:03.467Z,53.50
2018-12-26T09:42:35.344Z,53.60
2018-12-26T09:45:08.320Z,53.40
2018-12-26T09:47:40.191Z,53.50
2018-12-26T09:50:12.031Z,53.40
2018-12-26T09:52:43.869Z,53.30
2018-12-26T09:55:15.758Z,53.20
2018-12-26T09:57:47.552Z,53.30
2018-12-26T10:00:19.399Z,53.40
2018-12-26T10:02:51.405Z,53.50
2018-12-26T10:05:23.199Z,53.50
2018-12-26T10:07:56.891Z,53.50
2018-12-26T10:10:28.934Z,54.20
2018-12-26T10:13:00.951Z,53.60
2018-12-26T10:15:32.803Z,53.40
2018-12-26T10:18:04.641Z,53.30
2018-12-26T10:20:36.478Z,53.30
2018-12-26T10:23:08.525Z,53.40
2018-12-26T10:25:40.493Z,53.30
2018-12-26T10:28:12.369Z,53.30
2018-12-26T10:30:44.331Z,53.40
2018-12-26T10:33:16.158Z,53.30
2018-12-26T10:35:48.235Z,53.30
2018-12-26T10:38:20.068Z,53.30
2018-12-26T10:40:51.919Z,53.20
2018-12-26T10:43:23.785Z,53.20
2018-12-26T10:45:55.609Z,53.20
2018-12-26T10:48:28.716Z,53.30
2018-12-26T10:51:00.551Z,53.20
2018-12-26T10:53:32.589Z,53.10
2018-12-26T10:56:04.751Z,53.10
2018-12-26T10:58:36.636Z,53.00
2018-12-26T11:01:08.612Z,53.00
2018-12-26T11:03:40.490Z,53.00
2018-12-26T11:06:13.235Z,52.80
2018-12-26T11:08:45.437Z,52.90
2018-12-26T11:11:17.415Z,52.80
2018-12-26T11:13:49.246Z,52.70
2018-12-26T11:16:22.779Z,52.50
2018-12-26T11:18:55.606Z,53.00
2018-12-26T11:21:27.433Z,52.50
2018-12-26T11:23:59.293Z,52.40
2018-12-26T11:26:31.236Z,52.40
2018-12-26T11:29:03.305Z,52.60
2018-12-26T11:31:35.114Z,52.60
2018-12-26T11:34:07.059Z,52.80
2018-12-26T11:36:38.973Z,53.00
2018-12-26T11:39:11.078Z,53.00
2018-12-26T11:41:45.398Z,53.40
2018-12-26T11:44:17.375Z,53.10
2018-12-26T11:46:49.487Z,52.90
2018-12-26T11:49:21.506Z,52.90
2018-12-26T11:51:53.454Z,52.80
2018-12-26T11:54:25.280Z,52.80
2018-12-26T11:56:57.467Z,52.80
2018-12-26T11:59:29.357Z,52.80
2018-12-26T12:02:01.807Z,52.80
2018-12-26T12:04:34.919Z,52.90
2018-12-26T12:07:07.163Z,52.80
2018-12-26T12:09:39.101Z,53.00
2018-12-26T12:12:11.030Z,52.80
2018-12-26T12:14:43.165Z,52.50
2018-12-26T12:17:15.144Z,52.40
2018-12-26T12:19:47.296Z,52.40
2018-12-26T12:22:19.451Z,52.30
2018-12-26T12:24:51.411Z,52.10
2018-12-26T12:27:23.309Z,52.10
2018-12-26T12:29:55.202Z,52.20
2018-12-26T12:32:27.287Z,52.00
2018-12-26T12:34:59.159Z,52.00
2018-12-26T12:37:31.256Z,51.90
2018-12-26T12:40:03.243Z,51.90
2018-12-26T12:42:35.337Z,52.50
2018-12-26T12:45:19.012Z,51.70
2018-12-26T12:48:09.853Z,51.70
2018-12-26T12:50:41.892Z,51.80
2018-12-26T12:53:13.850Z,51.50
2018-12-26T12:55:45.829Z,51.40
2018-12-26T12:58:18.787Z,51.40
2018-12-26T13:00:50.843Z,51.30
2018-12-26T13:03:23.233Z,51.40
2018-12-26T13:05:55.246Z,51.20
2018-12-26T13:08:27.297Z,51.20
2018-12-26T13:10:59.185Z,51.40
2018-12-26T13:13:31.861Z,50.60
2018-12-26T13:16:03.996Z,50.70
2018-12-26T13:18:35.997Z,50.60
2018-12-26T13:21:07.923Z,50.40
2018-12-26T13:23:39.818Z,50.40
2018-12-26T13:26:11.951Z,50.10
2018-12-26T13:28:43.736Z,49.90
2018-12-26T13:31:16.022Z,49.70
2018-12-26T13:33:48.333Z,49.70
2018-12-26T13:36:20.213Z,49.40
2018-12-26T13:38:52.105Z,49.30
2018-12-26T13:41:23.981Z,49.00
2018-12-26T13:43:55.879Z,48.70
2018-12-26T13:46:33.790Z,48.20
2018-12-26T13:49:01.488Z,48.10
2018-12-26T13:51:33.473Z,48.80
2018-12-26T13:54:05.333Z,48.10
2018-12-26T13:56:38.061Z,48.00
2018-12-26T13:59:12.013Z,48.90
2018-12-26T14:01:44.039Z,49.10
2018-12-26T14:04:15.908Z,49.30
2018-12-26T14:06:47.867Z,49.30
2018-12-26T14:09:20.095Z,49.30
2018-12-26T14:11:51.996Z,49.30
2018-12-26T14:14:25.272Z,49.30
2018-12-26T14:16:57.575Z,49.20
2018-12-26T14:19:29.583Z,49.20
2018-12-26T14:22:01.419Z,49.10
2018-12-26T14:24:33.789Z,49.00
2018-12-26T14:27:05.871Z,49.10
2018-12-26T14:29:37.680Z,49.20
2018-12-26T14:32:09.670Z,49.40
2018-12-26T14:34:42.082Z,49.20
2018-12-26T14:37:13.975Z,49.20
2018-12-26T14:39:45.919Z,49.10
2018-12-26T14:42:17.796Z,49.20
2018-12-26T14:44:49.821Z,48.80
2018-12-26T14:47:21.783Z,48.70
2018-12-26T14:49:53.766Z,48.80
2018-12-26T14:52:25.675Z,48.70
2018-12-26T14:54:57.729Z,48.50
2018-12-26T14:57:29.724Z,48.40
2018-12-26T15:00:01.586Z,48.40
2018-12-26T15:02:33.462Z,48.40
2018-12-26T15:05:05.728Z,48.40
2018-12-26T15:07:37.655Z,48.50
2018-12-26T15:10:09.779Z,48.50
2018-12-26T15:12:54.650Z,48.50
2018-12-26T15:15:26.491Z,48.40
2018-12-26T15:17:58.786Z,48.70
2018-12-26T15:20:31.064Z,48.70
2018-12-26T15:23:03.081Z,48.80
2018-12-26T15:25:35.033Z,48.80
2018-12-26T15:28:07.264Z,48.80
2018-12-26T15:30:39.078Z,48.80
2018-12-26T15:33:10.961Z,49.00
2018-12-26T15:35:42.829Z,49.00
2018-12-26T15:38:14.877Z,49.20
2018-12-26T15:40:46.979Z,49.20
2018-12-26T15:43:18.898Z,49.00
2018-12-26T15:45:50.904Z,49.10
2018-12-26T15:48:23.118Z,49.10
2018-12-26T15:50:55.027Z,49.10
2018-12-26T15:53:27.036Z,49.00
2018-12-26T15:55:58.969Z,49.20
2018-12-26T15:58:31.057Z,49.10
2018-12-26T16:01:03.011Z,49.10
2018-12-26T16:03:35.056Z,49.20
2018-12-26T16:06:07.273Z,49.20
2018-12-26T16:08:39.202Z,49.20
2018-12-26T16:11:11.176Z,49.20
2018-12-26T16:13:43.157Z,49.30
2018-12-26T16:16:14.970Z,49.40
2018-12-26T16:18:46.857Z,49.30
2018-12-26T16:21:18.778Z,49.40
2018-12-26T16:23:50.646Z,49.30
2018-12-26T16:26:22.488Z,49.20
2018-12-26T16:28:54.384Z,49.30
2018-12-26T16:31:26.296Z,49.20
2018-12-26T16:33:58.314Z,49.20
2018-12-26T16:36:30.308Z,49.10
2018-12-26T16:39:02.561Z,49.10
2018-12-26T16:41:34.576Z,49.10
2018-12-26T16:44:06.855Z,49.30
2018-12-26T16:46:39.896Z,49.20
2018-12-26T16:49:11.890Z,49.20
2018-12-26T16:51:44.413Z,49.20
2018-12-26T16:54:17.529Z,49.30
2018-12-26T16:56:49.394Z,49.50
2018-12-26T16:59:21.589Z,49.30
2018-12-26T17:01:53.624Z,49.30
2018-12-26T17:04:25.784Z,49.30
2018-12-26T17:06:57.650Z,49.50
2018-12-26T17:09:29.645Z,49.40
2018-12-26T17:12:01.554Z,49.50
2018-12-26T17:14:33.581Z,49.50
2018-12-26T17:17:05.761Z,49.40
2018-12-26T17:19:37.859Z,49.50
2018-12-26T17:22:09.689Z,49.50
2018-12-26T17:24:41.600Z,49.50
2018-12-26T17:27:14.303Z,49.50
2018-12-26T17:29:46.435Z,49.50
2018-12-26T17:32:18.549Z,49.60
2018-12-26T17:34:50.575Z,49.60
2018-12-26T17:37:23.930Z,49.60
2018-12-26T17:39:56.088Z,49.70
2018-12-26T17:42:28.174Z,49.70
2018-12-26T17:45:00.452Z,49.80
2018-12-26T17:47:51.543Z,48.90
2018-12-26T17:50:51.891Z,49.90
2018-12-26T17:54:12.122Z,49.90
2018-12-26T17:57:26.298Z,49.90
2018-12-26T18:00:48.295Z,49.90
2018-12-26T18:03:20.320Z,49.80
2018-12-26T18:05:52.250Z,49.30
2018-12-26T18:08:24.583Z,49.90
2018-12-26T18:10:56.462Z,50.00
2018-12-26T18:13:28.391Z,50.10
2018-12-26T18:16:00.484Z,50.20
2018-12-26T18:18:32.418Z,50.10
2018-12-26T18:21:07.431Z,50.10
2018-12-26T18:23:38.791Z,50.20
2018-12-26T18:26:12.969Z,50.20
2018-12-26T18:28:57.459Z,50.30
2018-12-26T18:31:29.393Z,50.30
2018-12-26T18:34:01.890Z,50.20
2018-12-26T18:36:33.887Z,50.30
2018-12-26T18:39:08.513Z,50.30
2018-12-26T18:41:40.360Z,50.30
2018-12-26T18:44:12.259Z,50.40
2018-12-26T18:46:44.296Z,50.40
2018-12-26T18:49:16.266Z,50.40
2018-12-26T18:51:48.283Z,50.40
2018-12-26T18:54:20.311Z,50.40
2018-12-26T18:56:52.282Z,50.50
2018-12-26T18:59:24.183Z,50.60
2018-12-26T19:01:56.094Z,50.50
2018-12-26T19:04:28.379Z,50.50
2018-12-26T19:07:00.293Z,50.60
2018-12-26T19:09:32.271Z,50.70
2018-12-26T19:12:04.342Z,50.70
2018-12-26T19:14:36.524Z,50.50
2018-12-26T19:17:08.509Z,50.50
2018-12-26T19:19:40.389Z,50.50
2018-12-26T19:22:12.229Z,50.50
2018-12-26T19:24:44.059Z,50.50
2018-12-26T19:27:16.119Z,50.50
2018-12-26T19:29:48.136Z,50.50
2018-12-26T19:32:20.580Z,50.60
2018-12-26T19:34:52.450Z,50.70
2018-12-26T19:37:24.412Z,50.70
2018-12-26T19:39:56.480Z,50.70
2018-12-26T19:42:28.297Z,50.70
2018-12-26T19:45:00.407Z,50.90
2018-12-26T19:47:32.675Z,51.00
2018-12-26T19:50:05.474Z,51.00
2018-12-26T19:52:37.724Z,51.00
2018-12-26T19:55:11.282Z,50.90
2018-12-26T19:57:43.229Z,50.90
2018-12-26T20:00:15.204Z,50.90
2018-12-26T20:02:47.184Z,50.90
2018-12-26T20:05:19.044Z,50.90
2018-12-26T20:07:50.934Z,50.90
2018-12-26T20:10:22.879Z,50.90
2018-12-26T20:12:54.904Z,50.90
2018-12-26T20:15:26.775Z,51.00
2018-12-26T20:17:58.857Z,51.00
2018-12-26T20:20:31.398Z,51.00
2018-12-26T20:23:03.424Z,51.00
2018-12-26T20:25:35.463Z,51.10
2018-12-26T20:28:07.322Z,51.00
2018-12-26T20:30:39.320Z,51.00
2018-12-26T20:33:11.368Z,51.00
2018-12-26T20:35:43.313Z,50.90
2018-12-26T20:38:15.721Z,50.90
2018-12-26T20:40:47.672Z,50.90
2018-12-26T20:43:19.898Z,50.70
2018-12-26T20:45:51.910Z,50.70
2018-12-26T20:48:23.791Z,50.60
2018-12-26T20:50:55.935Z,50.60
2018-12-26T20:53:28.128Z,50.60
2018-12-26T20:56:00.084Z,51.10
2018-12-26T20:58:32.357Z,50.60
2018-12-26T21:01:04.358Z,50.60
2018-12-26T21:03:36.369Z,50.70
2018-12-26T21:06:08.644Z,50.70
2018-12-26T21:08:41.007Z,50.60
2018-12-26T21:11:13.014Z,50.50
2018-12-26T21:13:45.027Z,50.60
2018-12-26T21:16:16.919Z,50.50
2018-12-26T21:18:48.889Z,50.60
2018-12-26T21:21:22.935Z,50.50
2018-12-26T21:23:56.141Z,50.50
2018-12-26T21:26:28.053Z,50.50
2018-12-26T21:29:00.475Z,50.50
2018-12-26T21:31:34.216Z,50.40
2018-12-26T21:34:06.522Z,50.50
2018-12-26T21:36:38.682Z,50.40
2018-12-26T21:39:11.064Z,50.40
2018-12-26T21:41:43.725Z,50.30
2018-12-26T21:44:19.724Z,50.40
2018-12-26T21:46:51.865Z,50.40
2018-12-26T21:49:27.492Z,50.60
2018-12-26T21:51:59.715Z,50.40
2018-12-26T21:54:31.587Z,50.40
2018-12-26T21:57:03.465Z,50.40
2018-12-26T21:59:35.506Z,50.50
2018-12-26T22:02:22.616Z,50.40
2018-12-26T22:04:53.110Z,50.40
2018-12-26T22:07:25.317Z,50.50
2018-12-26T22:09:57.142Z,50.40
2018-12-26T22:12:29.043Z,50.30
2018-12-26T22:15:00.982Z,50.80
2018-12-26T22:17:33.164Z,50.30
2018-12-26T22:20:05.265Z,50.30
2018-12-26T22:22:38.373Z,50.30
2018-12-26T22:25:10.669Z,50.40
2018-12-26T22:27:42.745Z,50.30
2018-12-26T22:30:14.818Z,50.30
2018-12-26T22:32:47.091Z,50.40
2018-12-26T22:35:19.267Z,50.50
2018-12-26T22:37:51.281Z,50.60
2018-12-26T22:40:23.293Z,50.50
2018-12-26T22:42:56.465Z,50.50
2018-12-26T22:45:28.353Z,50.50
2018-12-26T22:48:00.314Z,50.40
2018-12-26T22:50:32.237Z,50.40
2018-12-26T22:53:04.166Z,50.40
2018-12-26T22:55:36.086Z,50.40
2018-12-26T22:58:08.092Z,50.40
2018-12-26T23:00:44.098Z,50.50
2018-12-26T23:03:16.058Z,50.70
2018-12-26T23:05:47.894Z,50.40
2018-12-26T23:08:20.108Z,50.40
2018-12-26T23:10:52.216Z,50.50
2018-12-26T23:13:24.009Z,50.40
2018-12-26T23:15:57.196Z,51.00
2018-12-26T23:18:29.029Z,50.40
2018-12-26T23:21:00.847Z,50.40
2018-12-26T23:23:32.822Z,50.50
2018-12-26T23:26:04.673Z,50.40
2018-12-26T23:28:36.528Z,50.40
2018-12-26T23:31:08.417Z,50.40
2018-12-26T23:33:40.403Z,50.30
2018-12-26T23:36:12.493Z,50.30
2018-12-26T23:38:44.293Z,50.30
2018-12-26T23:41:16.140Z,50.20
2018-12-26T23:43:48.115Z,50.20
2018-12-26T23:46:20.175Z,50.10
2018-12-26T23:48:52.325Z,50.10
2018-12-26T23:51:24.507Z,50.00
2018-12-26T23:53:56.452Z,50.00
2018-12-26T23:56:28.387Z,49.90
2018-12-26T23:59:00.177Z,49.80
